sensor_id;sensor_type;location;lat;lon;timestamp;temperature;humidity
6307;DHT22;3186;54.062;9.962;2023-09-07T00:00:36;22.00;99.90
6307;DHT22;3186;54.062;9.962;2023-09-07T00:03:01;21.90;99.90
6307;DHT22;3186;54.062;9.962;2023-09-07T00:05:27;21.90;99.90
6307;DHT22;3186;54.062;9.962;2023-09-07T00:07:53;21.80;99.90
6307;DHT22;3186;54.062;9.962;2023-09-07T00:10:18;21.80;99.90
6307;DHT22;3186;54.062;9.962;2023-09-07T00:12:44;21.80;99.90
6307;DHT22;3186;54.062;9.962;2023-09-07T00:15:10;21.80;99.90
6307;DHT22;3186;54.062;9.962;2023-09-07T00:17:36;21.70;99.90
6307;DHT22;3186;54.062;9.962;2023-09-07T00:20:03;21.70;99.90
6307;DHT22;3186;54.062;9.962;2023-09-07T00:22:40;21.70;99.90
6307;DHT22;3186;54.062;9.962;2023-09-07T00:25:06;21.60;99.90
6307;DHT22;3186;54.062;9.962;2023-09-07T00:27:34;21.60;99.90
6307;DHT22;3186;54.062;9.962;2023-09-07T00:30:00;21.50;99.90
6307;DHT22;3186;54.062;9.962;2023-09-07T00:32:26;21.50;99.90
6307;DHT22;3186;54.062;9.962;2023-09-07T00:34:52;21.50;99.90
6307;DHT22;3186;54.062;9.962;2023-09-07T00:37:17;21.50;99.90
6307;DHT22;3186;54.062;9.962;2023-09-07T00:39:43;21.40;99.90
6307;DHT22;3186;54.062;9.962;2023-09-07T00:42:09;21.40;99.90
6307;DHT22;3186;54.062;9.962;2023-09-07T00:44:34;21.40;99.90
6307;DHT22;3186;54.062;9.962;2023-09-07T00:47:00;21.30;99.90
6307;DHT22;3186;54.062;9.962;2023-09-07T00:49:26;21.30;99.90
6307;DHT22;3186;54.062;9.962;2023-09-07T00:51:52;21.30;99.90
6307;DHT22;3186;54.062;9.962;2023-09-07T00:54:18;21.30;99.90
6307;DHT22;3186;54.062;9.962;2023-09-07T00:56:45;21.30;99.90
6307;DHT22;3186;54.062;9.962;2023-09-07T00:59:11;21.20;99.90
6307;DHT22;3186;54.062;9.962;2023-09-07T01:01:37;21.20;99.90
6307;DHT22;3186;54.062;9.962;2023-09-07T01:04:03;21.10;99.90
6307;DHT22;3186;54.062;9.962;2023-09-07T01:07:09;21.10;99.90
6307;DHT22;3186;54.062;9.962;2023-09-07T01:09:40;21.10;99.90
6307;DHT22;3186;54.062;9.962;2023-09-07T01:12:07;21.00;99.90
6307;DHT22;3186;54.062;9.962;2023-09-07T01:14:36;21.00;99.90
6307;DHT22;3186;54.062;9.962;2023-09-07T01:17:03;21.00;99.90
6307;DHT22;3186;54.062;9.962;2023-09-07T01:19:30;21.00;99.90
6307;DHT22;3186;54.062;9.962;2023-09-07T01:24:31;20.90;99.90
6307;DHT22;3186;54.062;9.962;2023-09-07T01:26:58;20.90;99.90
6307;DHT22;3186;54.062;9.962;2023-09-07T01:29:25;20.90;99.90
6307;DHT22;3186;54.062;9.962;2023-09-07T01:31:55;20.80;99.90
6307;DHT22;3186;54.062;9.962;2023-09-07T01:34:21;20.80;99.90
6307;DHT22;3186;54.062;9.962;2023-09-07T01:36:46;20.80;99.90
6307;DHT22;3186;54.062;9.962;2023-09-07T01:39:12;20.70;99.90
6307;DHT22;3186;54.062;9.962;2023-09-07T01:41:38;20.70;99.90
6307;DHT22;3186;54.062;9.962;2023-09-07T01:44:03;20.70;99.90
6307;DHT22;3186;54.062;9.962;2023-09-07T01:46:29;20.70;99.90
6307;DHT22;3186;54.062;9.962;2023-09-07T01:48:55;20.60;99.90
6307;DHT22;3186;54.062;9.962;2023-09-07T01:51:20;20.60;99.90
6307;DHT22;3186;54.062;9.962;2023-09-07T01:53:49;20.60;99.90
6307;DHT22;3186;54.062;9.962;2023-09-07T01:56:17;20.60;99.90
6307;DHT22;3186;54.062;9.962;2023-09-07T01:58:43;20.50;99.90
6307;DHT22;3186;54.062;9.962;2023-09-07T02:01:23;20.50;99.90
6307;DHT22;3186;54.062;9.962;2023-09-07T02:03:49;20.50;99.90
6307;DHT22;3186;54.062;9.962;2023-09-07T02:06:14;20.50;99.90
6307;DHT22;3186;54.062;9.962;2023-09-07T02:08:40;20.50;99.90
6307;DHT22;3186;54.062;9.962;2023-09-07T02:11:06;20.50;99.90
6307;DHT22;3186;54.062;9.962;2023-09-07T02:13:32;20.50;99.90
6307;DHT22;3186;54.062;9.962;2023-09-07T02:15:57;20.40;99.90
6307;DHT22;3186;54.062;9.962;2023-09-07T02:18:23;20.40;99.90
6307;DHT22;3186;54.062;9.962;2023-09-07T02:20:48;20.40;99.90
6307;DHT22;3186;54.062;9.962;2023-09-07T02:23:14;20.40;99.90
6307;DHT22;3186;54.062;9.962;2023-09-07T02:25:43;20.30;99.90
6307;DHT22;3186;54.062;9.962;2023-09-07T02:28:08;20.30;99.90
6307;DHT22;3186;54.062;9.962;2023-09-07T02:30:34;20.30;99.90
6307;DHT22;3186;54.062;9.962;2023-09-07T02:33:00;20.30;99.90
6307;DHT22;3186;54.062;9.962;2023-09-07T02:35:27;20.30;99.90
6307;DHT22;3186;54.062;9.962;2023-09-07T02:37:52;20.20;99.90
6307;DHT22;3186;54.062;9.962;2023-09-07T02:40:18;20.20;99.90
6307;DHT22;3186;54.062;9.962;2023-09-07T02:42:44;20.20;99.90
6307;DHT22;3186;54.062;9.962;2023-09-07T02:45:14;20.10;99.90
6307;DHT22;3186;54.062;9.962;2023-09-07T02:47:39;20.10;99.90
6307;DHT22;3186;54.062;9.962;2023-09-07T02:50:06;20.10;99.90
6307;DHT22;3186;54.062;9.962;2023-09-07T02:52:31;20.10;99.90
6307;DHT22;3186;54.062;9.962;2023-09-07T02:54:57;20.10;99.90
6307;DHT22;3186;54.062;9.962;2023-09-07T02:57:23;20.00;99.90
6307;DHT22;3186;54.062;9.962;2023-09-07T03:07:10;20.00;99.90
6307;DHT22;3186;54.062;9.962;2023-09-07T03:09:36;19.90;99.90
6307;DHT22;3186;54.062;9.962;2023-09-07T03:12:03;19.90;99.90
6307;DHT22;3186;54.062;9.962;2023-09-07T03:14:30;19.90;99.90
6307;DHT22;3186;54.062;9.962;2023-09-07T03:16:56;19.90;99.90
6307;DHT22;3186;54.062;9.962;2023-09-07T03:19:22;19.80;99.90
6307;DHT22;3186;54.062;9.962;2023-09-07T03:21:48;19.80;99.90
6307;DHT22;3186;54.062;9.962;2023-09-07T03:24:14;19.80;99.90
6307;DHT22;3186;54.062;9.962;2023-09-07T03:26:41;19.80;99.90
6307;DHT22;3186;54.062;9.962;2023-09-07T03:29:07;19.80;99.90
6307;DHT22;3186;54.062;9.962;2023-09-07T03:31:32;19.70;99.90
6307;DHT22;3186;54.062;9.962;2023-09-07T03:33:58;19.70;99.90
6307;DHT22;3186;54.062;9.962;2023-09-07T03:36:23;19.70;99.90
6307;DHT22;3186;54.062;9.962;2023-09-07T03:38:49;19.70;99.90
6307;DHT22;3186;54.062;9.962;2023-09-07T03:41:15;19.70;99.90
6307;DHT22;3186;54.062;9.962;2023-09-07T03:43:40;19.60;99.90
6307;DHT22;3186;54.062;9.962;2023-09-07T03:46:07;19.60;99.90
6307;DHT22;3186;54.062;9.962;2023-09-07T03:48:34;19.60;99.90
6307;DHT22;3186;54.062;9.962;2023-09-07T03:50:59;19.60;99.90
6307;DHT22;3186;54.062;9.962;2023-09-07T03:53:25;19.50;99.90
6307;DHT22;3186;54.062;9.962;2023-09-07T03:55:51;19.50;99.90
6307;DHT22;3186;54.062;9.962;2023-09-07T03:58:17;19.50;99.90
6307;DHT22;3186;54.062;9.962;2023-09-07T04:00:44;19.50;99.90
6307;DHT22;3186;54.062;9.962;2023-09-07T04:03:10;19.50;99.90
6307;DHT22;3186;54.062;9.962;2023-09-07T04:05:39;19.40;99.90
6307;DHT22;3186;54.062;9.962;2023-09-07T04:08:06;19.40;99.90
6307;DHT22;3186;54.062;9.962;2023-09-07T04:10:31;19.40;99.90
6307;DHT22;3186;54.062;9.962;2023-09-07T04:12:57;19.40;99.90
6307;DHT22;3186;54.062;9.962;2023-09-07T04:15:23;19.30;99.90
6307;DHT22;3186;54.062;9.962;2023-09-07T04:17:52;19.30;99.90
6307;DHT22;3186;54.062;9.962;2023-09-07T04:20:20;19.30;99.90
6307;DHT22;3186;54.062;9.962;2023-09-07T04:22:46;19.30;99.90
6307;DHT22;3186;54.062;9.962;2023-09-07T04:25:11;19.30;99.90
6307;DHT22;3186;54.062;9.962;2023-09-07T04:27:37;19.20;99.90
6307;DHT22;3186;54.062;9.962;2023-09-07T04:30:03;19.20;99.90
6307;DHT22;3186;54.062;9.962;2023-09-07T04:32:30;19.20;99.90
6307;DHT22;3186;54.062;9.962;2023-09-07T04:34:56;19.20;99.90
6307;DHT22;3186;54.062;9.962;2023-09-07T04:37:23;19.10;99.90
6307;DHT22;3186;54.062;9.962;2023-09-07T04:39:52;19.10;99.90
6307;DHT22;3186;54.062;9.962;2023-09-07T04:42:19;19.10;99.90
6307;DHT22;3186;54.062;9.962;2023-09-07T04:44:48;19.10;99.90
6307;DHT22;3186;54.062;9.962;2023-09-07T04:47:15;19.10;99.90
6307;DHT22;3186;54.062;9.962;2023-09-07T04:49:49;19.00;99.90
6307;DHT22;3186;54.062;9.962;2023-09-07T04:52:19;19.00;99.90
6307;DHT22;3186;54.062;9.962;2023-09-07T04:54:45;19.00;99.90
6307;DHT22;3186;54.062;9.962;2023-09-07T04:57:12;19.00;99.90
6307;DHT22;3186;54.062;9.962;2023-09-07T04:59:38;18.90;99.90
6307;DHT22;3186;54.062;9.962;2023-09-07T05:02:03;18.90;99.90
6307;DHT22;3186;54.062;9.962;2023-09-07T05:04:29;18.90;99.90
6307;DHT22;3186;54.062;9.962;2023-09-07T05:06:59;18.90;99.90
6307;DHT22;3186;54.062;9.962;2023-09-07T05:09:24;18.90;99.90
6307;DHT22;3186;54.062;9.962;2023-09-07T05:11:51;18.80;99.90
6307;DHT22;3186;54.062;9.962;2023-09-07T05:14:17;18.80;99.90
6307;DHT22;3186;54.062;9.962;2023-09-07T05:16:43;18.80;99.90
6307;DHT22;3186;54.062;9.962;2023-09-07T05:19:09;18.80;99.90
6307;DHT22;3186;54.062;9.962;2023-09-07T05:21:35;18.80;99.90
6307;DHT22;3186;54.062;9.962;2023-09-07T05:24:00;18.80;99.90
6307;DHT22;3186;54.062;9.962;2023-09-07T05:26:26;18.80;99.90
6307;DHT22;3186;54.062;9.962;2023-09-07T05:28:52;18.80;99.90
6307;DHT22;3186;54.062;9.962;2023-09-07T05:31:18;18.70;99.90
6307;DHT22;3186;54.062;9.962;2023-09-07T05:33:44;18.70;99.90
6307;DHT22;3186;54.062;9.962;2023-09-07T05:36:10;18.70;99.90
6307;DHT22;3186;54.062;9.962;2023-09-07T05:38:36;18.70;99.90
6307;DHT22;3186;54.062;9.962;2023-09-07T05:41:03;18.70;99.90
6307;DHT22;3186;54.062;9.962;2023-09-07T05:43:29;18.60;99.90
6307;DHT22;3186;54.062;9.962;2023-09-07T05:45:55;18.70;99.90
6307;DHT22;3186;54.062;9.962;2023-09-07T05:48:20;18.60;99.90
6307;DHT22;3186;54.062;9.962;2023-09-07T05:50:47;18.60;99.90
6307;DHT22;3186;54.062;9.962;2023-09-07T05:53:13;18.60;99.90
6307;DHT22;3186;54.062;9.962;2023-09-07T05:55:38;18.60;99.90
6307;DHT22;3186;54.062;9.962;2023-09-07T05:58:06;18.60;99.90
6307;DHT22;3186;54.062;9.962;2023-09-07T06:00:35;18.60;99.90
6307;DHT22;3186;54.062;9.962;2023-09-07T06:03:02;18.60;99.90
6307;DHT22;3186;54.062;9.962;2023-09-07T06:05:29;18.60;99.90
6307;DHT22;3186;54.062;9.962;2023-09-07T06:07:55;18.60;99.90
6307;DHT22;3186;54.062;9.962;2023-09-07T06:10:20;18.70;99.90
6307;DHT22;3186;54.062;9.962;2023-09-07T06:12:47;18.60;99.90
6307;DHT22;3186;54.062;9.962;2023-09-07T06:15:13;18.60;99.90
6307;DHT22;3186;54.062;9.962;2023-09-07T06:17:39;18.60;99.90
6307;DHT22;3186;54.062;9.962;2023-09-07T06:20:05;18.60;99.90
6307;DHT22;3186;54.062;9.962;2023-09-07T06:22:31;18.60;99.90
6307;DHT22;3186;54.062;9.962;2023-09-07T06:24:57;18.60;99.90
6307;DHT22;3186;54.062;9.962;2023-09-07T06:27:23;18.60;99.90
6307;DHT22;3186;54.062;9.962;2023-09-07T06:29:49;18.60;99.90
6307;DHT22;3186;54.062;9.962;2023-09-07T06:32:14;18.60;99.90
6307;DHT22;3186;54.062;9.962;2023-09-07T06:34:40;18.70;99.90
6307;DHT22;3186;54.062;9.962;2023-09-07T06:37:06;18.70;99.90
6307;DHT22;3186;54.062;9.962;2023-09-07T06:39:32;18.70;99.90
6307;DHT22;3186;54.062;9.962;2023-09-07T06:41:58;18.70;99.90
6307;DHT22;3186;54.062;9.962;2023-09-07T06:44:29;18.80;99.90
6307;DHT22;3186;54.062;9.962;2023-09-07T06:46:54;18.70;99.90
6307;DHT22;3186;54.062;9.962;2023-09-07T06:49:21;18.70;99.90
6307;DHT22;3186;54.062;9.962;2023-09-07T06:51:47;18.80;99.90
6307;DHT22;3186;54.062;9.962;2023-09-07T06:54:13;18.90;99.90
6307;DHT22;3186;54.062;9.962;2023-09-07T06:56:40;18.80;99.90
6307;DHT22;3186;54.062;9.962;2023-09-07T06:59:06;18.90;99.90
6307;DHT22;3186;54.062;9.962;2023-09-07T07:01:32;18.90;99.90
6307;DHT22;3186;54.062;9.962;2023-09-07T07:03:57;19.00;99.90
6307;DHT22;3186;54.062;9.962;2023-09-07T07:06:24;19.10;99.90
6307;DHT22;3186;54.062;9.962;2023-09-07T07:08:51;19.10;99.90
6307;DHT22;3186;54.062;9.962;2023-09-07T07:11:18;19.20;99.90
6307;DHT22;3186;54.062;9.962;2023-09-07T07:13:44;19.40;99.90
6307;DHT22;3186;54.062;9.962;2023-09-07T07:16:10;19.40;99.90
6307;DHT22;3186;54.062;9.962;2023-09-07T07:18:36;19.40;99.90
6307;DHT22;3186;54.062;9.962;2023-09-07T07:21:02;19.50;99.90
6307;DHT22;3186;54.062;9.962;2023-09-07T07:23:28;19.50;99.90
6307;DHT22;3186;54.062;9.962;2023-09-07T07:25:54;19.50;99.90
6307;DHT22;3186;54.062;9.962;2023-09-07T07:28:22;19.40;99.90
6307;DHT22;3186;54.062;9.962;2023-09-07T07:30:48;19.70;99.90
6307;DHT22;3186;54.062;9.962;2023-09-07T07:33:14;20.10;99.90
6307;DHT22;3186;54.062;9.962;2023-09-07T07:35:40;20.30;99.90
6307;DHT22;3186;54.062;9.962;2023-09-07T07:38:05;20.40;99.90
6307;DHT22;3186;54.062;9.962;2023-09-07T07:40:36;20.70;99.90
6307;DHT22;3186;54.062;9.962;2023-09-07T07:43:02;20.70;99.90
6307;DHT22;3186;54.062;9.962;2023-09-07T07:45:28;20.90;99.90
6307;DHT22;3186;54.062;9.962;2023-09-07T07:47:55;20.70;99.90
6307;DHT22;3186;54.062;9.962;2023-09-07T07:50:20;20.80;99.90
6307;DHT22;3186;54.062;9.962;2023-09-07T07:52:48;21.10;99.90
6307;DHT22;3186;54.062;9.962;2023-09-07T07:55:14;21.20;99.90
6307;DHT22;3186;54.062;9.962;2023-09-07T07:57:41;21.00;99.90
6307;DHT22;3186;54.062;9.962;2023-09-07T08:00:09;21.50;99.90
6307;DHT22;3186;54.062;9.962;2023-09-07T08:02:48;21.80;99.90
6307;DHT22;3186;54.062;9.962;2023-09-07T08:05:14;21.70;99.90
6307;DHT22;3186;54.062;9.962;2023-09-07T08:07:41;21.50;99.90
6307;DHT22;3186;54.062;9.962;2023-09-07T08:10:07;21.90;99.90
6307;DHT22;3186;54.062;9.962;2023-09-07T08:12:32;22.60;99.90
6307;DHT22;3186;54.062;9.962;2023-09-07T08:14:58;23.00;99.90
6307;DHT22;3186;54.062;9.962;2023-09-07T08:17:24;23.30;99.90
6307;DHT22;3186;54.062;9.962;2023-09-07T08:19:51;23.40;99.90
6307;DHT22;3186;54.062;9.962;2023-09-07T08:22:22;23.60;99.90
6307;DHT22;3186;54.062;9.962;2023-09-07T08:24:48;23.80;99.90
6307;DHT22;3186;54.062;9.962;2023-09-07T08:27:15;23.70;99.90
6307;DHT22;3186;54.062;9.962;2023-09-07T08:29:45;23.40;99.90
6307;DHT22;3186;54.062;9.962;2023-09-07T08:32:17;23.80;99.90
6307;DHT22;3186;54.062;9.962;2023-09-07T08:34:42;24.10;99.90
6307;DHT22;3186;54.062;9.962;2023-09-07T08:37:08;23.60;99.90
6307;DHT22;3186;54.062;9.962;2023-09-07T08:39:36;24.30;99.90
6307;DHT22;3186;54.062;9.962;2023-09-07T08:42:04;24.50;99.90
6307;DHT22;3186;54.062;9.962;2023-09-07T08:44:32;24.40;99.90
6307;DHT22;3186;54.062;9.962;2023-09-07T08:46:59;24.40;99.90
6307;DHT22;3186;54.062;9.962;2023-09-07T08:49:27;24.40;99.90
6307;DHT22;3186;54.062;9.962;2023-09-07T08:51:53;24.90;99.90
6307;DHT22;3186;54.062;9.962;2023-09-07T08:54:19;25.20;99.90
6307;DHT22;3186;54.062;9.962;2023-09-07T08:56:46;25.20;99.90
6307;DHT22;3186;54.062;9.962;2023-09-07T08:59:12;25.40;99.90
6307;DHT22;3186;54.062;9.962;2023-09-07T09:01:38;25.70;99.90
6307;DHT22;3186;54.062;9.962;2023-09-07T09:04:03;25.60;99.90
6307;DHT22;3186;54.062;9.962;2023-09-07T09:06:29;25.90;99.90
6307;DHT22;3186;54.062;9.962;2023-09-07T09:08:56;26.00;99.90
6307;DHT22;3186;54.062;9.962;2023-09-07T09:11:23;26.30;99.90
6307;DHT22;3186;54.062;9.962;2023-09-07T09:13:51;26.00;99.90
6307;DHT22;3186;54.062;9.962;2023-09-07T09:16:18;25.60;99.90
6307;DHT22;3186;54.062;9.962;2023-09-07T09:18:50;26.40;99.90
6307;DHT22;3186;54.062;9.962;2023-09-07T09:21:22;26.60;99.90
6307;DHT22;3186;54.062;9.962;2023-09-07T09:23:51;26.70;99.90
6307;DHT22;3186;54.062;9.962;2023-09-07T09:26:17;27.00;99.90
6307;DHT22;3186;54.062;9.962;2023-09-07T09:28:44;27.40;99.90
6307;DHT22;3186;54.062;9.962;2023-09-07T09:31:13;27.70;97.50
6307;DHT22;3186;54.062;9.962;2023-09-07T09:33:40;27.70;97.10
6307;DHT22;3186;54.062;9.962;2023-09-07T09:36:06;26.70;99.90
6307;DHT22;3186;54.062;9.962;2023-09-07T09:38:33;26.50;99.90
6307;DHT22;3186;54.062;9.962;2023-09-07T09:40:59;26.60;99.90
6307;DHT22;3186;54.062;9.962;2023-09-07T09:43:25;26.80;99.90
6307;DHT22;3186;54.062;9.962;2023-09-07T09:45:52;26.30;99.90
6307;DHT22;3186;54.062;9.962;2023-09-07T09:48:22;27.20;99.90
6307;DHT22;3186;54.062;9.962;2023-09-07T09:50:49;27.70;90.70
6307;DHT22;3186;54.062;9.962;2023-09-07T09:53:18;28.20;92.30
6307;DHT22;3186;54.062;9.962;2023-09-07T09:55:46;28.40;87.90
6307;DHT22;3186;54.062;9.962;2023-09-07T09:58:13;28.70;86.80
6307;DHT22;3186;54.062;9.962;2023-09-07T10:00:44;28.80;91.50
6307;DHT22;3186;54.062;9.962;2023-09-07T10:03:12;28.70;91.70
6307;DHT22;3186;54.062;9.962;2023-09-07T10:05:38;28.50;87.70
6307;DHT22;3186;54.062;9.962;2023-09-07T10:08:09;28.80;72.20
6307;DHT22;3186;54.062;9.962;2023-09-07T10:10:36;28.90;69.10
6307;DHT22;3186;54.062;9.962;2023-09-07T10:13:02;29.30;69.60
6307;DHT22;3186;54.062;9.962;2023-09-07T10:15:28;29.40;57.40
6307;DHT22;3186;54.062;9.962;2023-09-07T10:18:13;29.20;65.20
6307;DHT22;3186;54.062;9.962;2023-09-07T10:20:58;29.40;48.90
6307;DHT22;3186;54.062;9.962;2023-09-07T10:26:02;29.80;53.70
6307;DHT22;3186;54.062;9.962;2023-09-07T10:28:30;29.10;66.70
6307;DHT22;3186;54.062;9.962;2023-09-07T10:30:59;29.50;48.00
6307;DHT22;3186;54.062;9.962;2023-09-07T10:33:25;29.60;62.80
6307;DHT22;3186;54.062;9.962;2023-09-07T10:35:52;29.40;84.10
6307;DHT22;3186;54.062;9.962;2023-09-07T10:38:17;29.80;63.00
6307;DHT22;3186;54.062;9.962;2023-09-07T10:40:47;30.00;65.50
6307;DHT22;3186;54.062;9.962;2023-09-07T10:43:13;30.00;81.70
6307;DHT22;3186;54.062;9.962;2023-09-07T10:45:39;29.70;51.20
6307;DHT22;3186;54.062;9.962;2023-09-07T10:48:05;30.40;52.50
6307;DHT22;3186;54.062;9.962;2023-09-07T10:50:42;30.40;51.00
6307;DHT22;3186;54.062;9.962;2023-09-07T10:53:08;30.30;33.60
6307;DHT22;3186;54.062;9.962;2023-09-07T10:55:37;30.10;76.60
6307;DHT22;3186;54.062;9.962;2023-09-07T10:58:06;30.80;44.80
6307;DHT22;3186;54.062;9.962;2023-09-07T11:00:34;30.50;54.40
6307;DHT22;3186;54.062;9.962;2023-09-07T11:03:07;31.00;28.90
6307;DHT22;3186;54.062;9.962;2023-09-07T11:05:34;30.80;35.90
6307;DHT22;3186;54.062;9.962;2023-09-07T11:08:03;31.10;17.10
6307;DHT22;3186;54.062;9.962;2023-09-07T11:10:32;31.00;50.60
6307;DHT22;3186;54.062;9.962;2023-09-07T11:13:02;31.00;19.80
6307;DHT22;3186;54.062;9.962;2023-09-07T11:15:30;31.30;27.70
6307;DHT22;3186;54.062;9.962;2023-09-07T11:17:56;31.50;27.40
6307;DHT22;3186;54.062;9.962;2023-09-07T11:20:23;31.50;17.60
6307;DHT22;3186;54.062;9.962;2023-09-07T11:22:48;31.80;31.30
6307;DHT22;3186;54.062;9.962;2023-09-07T11:25:15;31.60;24.80
6307;DHT22;3186;54.062;9.962;2023-09-07T11:27:40;31.50;47.20
6307;DHT22;3186;54.062;9.962;2023-09-07T11:30:06;31.80;43.80
6307;DHT22;3186;54.062;9.962;2023-09-07T11:32:34;32.00;16.40
6307;DHT22;3186;54.062;9.962;2023-09-07T11:35:00;32.20;19.00
6307;DHT22;3186;54.062;9.962;2023-09-07T11:37:26;32.10;28.20
6307;DHT22;3186;54.062;9.962;2023-09-07T11:39:52;32.20;20.20
6307;DHT22;3186;54.062;9.962;2023-09-07T11:42:18;32.30;30.60
6307;DHT22;3186;54.062;9.962;2023-09-07T11:44:43;32.50;16.00
6307;DHT22;3186;54.062;9.962;2023-09-07T11:47:09;32.50;27.50
6307;DHT22;3186;54.062;9.962;2023-09-07T11:49:34;32.40;23.10
6307;DHT22;3186;54.062;9.962;2023-09-07T11:52:00;32.60;6.90
6307;DHT22;3186;54.062;9.962;2023-09-07T11:54:26;32.70;10.20
6307;DHT22;3186;54.062;9.962;2023-09-07T11:56:52;32.50;6.80
6307;DHT22;3186;54.062;9.962;2023-09-07T11:59:18;32.70;20.90
6307;DHT22;3186;54.062;9.962;2023-09-07T12:01:44;32.70;33.90
6307;DHT22;3186;54.062;9.962;2023-09-07T12:04:10;32.80;23.80
6307;DHT22;3186;54.062;9.962;2023-09-07T12:06:36;33.00;27.80
6307;DHT22;3186;54.062;9.962;2023-09-07T12:09:04;32.60;52.90
6307;DHT22;3186;54.062;9.962;2023-09-07T12:11:30;32.80;41.10
6307;DHT22;3186;54.062;9.962;2023-09-07T12:13:56;32.60;48.00
6307;DHT22;3186;54.062;9.962;2023-09-07T12:16:22;33.20;45.20
6307;DHT22;3186;54.062;9.962;2023-09-07T12:18:48;33.30;23.10
6307;DHT22;3186;54.062;9.962;2023-09-07T12:21:13;32.70;31.30
6307;DHT22;3186;54.062;9.962;2023-09-07T12:23:39;33.20;54.80
6307;DHT22;3186;54.062;9.962;2023-09-07T12:26:04;33.30;45.10
6307;DHT22;3186;54.062;9.962;2023-09-07T12:28:31;33.50;37.20
6307;DHT22;3186;54.062;9.962;2023-09-07T12:30:59;33.20;59.50
6307;DHT22;3186;54.062;9.962;2023-09-07T12:33:25;33.20;46.90
6307;DHT22;3186;54.062;9.962;2023-09-07T12:35:51;33.20;28.50
6307;DHT22;3186;54.062;9.962;2023-09-07T12:38:17;33.30;42.20
6307;DHT22;3186;54.062;9.962;2023-09-07T12:40:47;32.90;64.80
6307;DHT22;3186;54.062;9.962;2023-09-07T12:43:13;33.20;41.30
6307;DHT22;3186;54.062;9.962;2023-09-07T12:45:39;33.40;32.50
6307;DHT22;3186;54.062;9.962;2023-09-07T12:48:05;33.20;72.40
6307;DHT22;3186;54.062;9.962;2023-09-07T12:50:31;32.90;61.40
6307;DHT22;3186;54.062;9.962;2023-09-07T12:52:57;32.90;44.70
6307;DHT22;3186;54.062;9.962;2023-09-07T12:55:23;32.90;55.00
6307;DHT22;3186;54.062;9.962;2023-09-07T12:57:50;33.00;58.40
6307;DHT22;3186;54.062;9.962;2023-09-07T13:00:15;33.00;24.00
6307;DHT22;3186;54.062;9.962;2023-09-07T13:02:41;33.10;61.60
6307;DHT22;3186;54.062;9.962;2023-09-07T13:05:07;33.00;43.10
6307;DHT22;3186;54.062;9.962;2023-09-07T13:07:33;33.00;39.80
6307;DHT22;3186;54.062;9.962;2023-09-07T13:10:04;33.40;40.50
6307;DHT22;3186;54.062;9.962;2023-09-07T13:12:33;33.40;63.30
6307;DHT22;3186;54.062;9.962;2023-09-07T13:14:59;33.20;49.60
6307;DHT22;3186;54.062;9.962;2023-09-07T13:17:24;33.30;30.80
6307;DHT22;3186;54.062;9.962;2023-09-07T13:19:50;32.70;56.10
6307;DHT22;3186;54.062;9.962;2023-09-07T13:22:16;32.60;37.50
6307;DHT22;3186;54.062;9.962;2023-09-07T13:24:42;33.10;31.10
6307;DHT22;3186;54.062;9.962;2023-09-07T13:27:07;32.90;14.90
6307;DHT22;3186;54.062;9.962;2023-09-07T13:29:35;33.20;64.90
6307;DHT22;3186;54.062;9.962;2023-09-07T13:32:01;33.20;74.80
6307;DHT22;3186;54.062;9.962;2023-09-07T13:34:28;33.20;30.40
6307;DHT22;3186;54.062;9.962;2023-09-07T13:36:54;33.30;53.90
6307;DHT22;3186;54.062;9.962;2023-09-07T13:39:20;33.50;49.60
6307;DHT22;3186;54.062;9.962;2023-09-07T13:41:46;33.20;66.20
6307;DHT22;3186;54.062;9.962;2023-09-07T13:44:13;33.10;56.90
6307;DHT22;3186;54.062;9.962;2023-09-07T13:46:39;32.90;56.50
6307;DHT22;3186;54.062;9.962;2023-09-07T13:49:05;33.20;50.60
6307;DHT22;3186;54.062;9.962;2023-09-07T13:51:30;33.50;59.70
6307;DHT22;3186;54.062;9.962;2023-09-07T13:54:03;33.50;55.80
6307;DHT22;3186;54.062;9.962;2023-09-07T13:56:29;33.40;56.80
6307;DHT22;3186;54.062;9.962;2023-09-07T13:58:54;33.20;40.40
6307;DHT22;3186;54.062;9.962;2023-09-07T14:01:20;33.60;63.10
6307;DHT22;3186;54.062;9.962;2023-09-07T14:03:46;33.50;32.60
6307;DHT22;3186;54.062;9.962;2023-09-07T14:06:12;33.30;63.40
6307;DHT22;3186;54.062;9.962;2023-09-07T14:08:38;33.30;53.60
6307;DHT22;3186;54.062;9.962;2023-09-07T14:11:03;33.20;66.90
6307;DHT22;3186;54.062;9.962;2023-09-07T14:13:31;33.30;41.30
6307;DHT22;3186;54.062;9.962;2023-09-07T14:16:00;33.60;59.10
6307;DHT22;3186;54.062;9.962;2023-09-07T14:18:26;33.50;37.10
6307;DHT22;3186;54.062;9.962;2023-09-07T14:20:51;33.40;49.70
6307;DHT22;3186;54.062;9.962;2023-09-07T14:23:17;33.30;59.30
6307;DHT22;3186;54.062;9.962;2023-09-07T14:25:46;33.50;59.80
6307;DHT22;3186;54.062;9.962;2023-09-07T14:28:13;33.30;54.50
6307;DHT22;3186;54.062;9.962;2023-09-07T14:30:39;33.00;45.80
6307;DHT22;3186;54.062;9.962;2023-09-07T14:33:05;33.00;53.00
6307;DHT22;3186;54.062;9.962;2023-09-07T14:35:31;32.80;54.70
6307;DHT22;3186;54.062;9.962;2023-09-07T14:37:56;32.70;45.60
6307;DHT22;3186;54.062;9.962;2023-09-07T14:40:22;32.70;30.40
6307;DHT22;3186;54.062;9.962;2023-09-07T14:42:49;32.80;25.50
6307;DHT22;3186;54.062;9.962;2023-09-07T14:45:16;32.50;30.30
6307;DHT22;3186;54.062;9.962;2023-09-07T14:47:42;32.90;48.60
6307;DHT22;3186;54.062;9.962;2023-09-07T14:50:08;32.90;54.40
6307;DHT22;3186;54.062;9.962;2023-09-07T14:52:34;32.90;59.20
6307;DHT22;3186;54.062;9.962;2023-09-07T14:55:06;33.00;56.20
6307;DHT22;3186;54.062;9.962;2023-09-07T14:57:33;33.10;32.10
6307;DHT22;3186;54.062;9.962;2023-09-07T15:00:02;33.10;62.60
6307;DHT22;3186;54.062;9.962;2023-09-07T15:02:29;33.30;55.30
6307;DHT22;3186;54.062;9.962;2023-09-07T15:04:55;33.30;58.20
6307;DHT22;3186;54.062;9.962;2023-09-07T15:07:20;32.90;52.70
6307;DHT22;3186;54.062;9.962;2023-09-07T15:09:49;32.90;55.70
6307;DHT22;3186;54.062;9.962;2023-09-07T15:12:15;32.70;20.50
6307;DHT22;3186;54.062;9.962;2023-09-07T15:14:40;32.70;59.90
6307;DHT22;3186;54.062;9.962;2023-09-07T15:17:06;32.70;46.60
6307;DHT22;3186;54.062;9.962;2023-09-07T15:19:33;32.50;51.80
6307;DHT22;3186;54.062;9.962;2023-09-07T15:22:00;32.70;57.50
6307;DHT22;3186;54.062;9.962;2023-09-07T15:24:25;32.90;57.20
6307;DHT22;3186;54.062;9.962;2023-09-07T15:26:51;32.80;48.60
6307;DHT22;3186;54.062;9.962;2023-09-07T15:29:17;32.70;53.70
6307;DHT22;3186;54.062;9.962;2023-09-07T15:31:42;32.60;21.80
6307;DHT22;3186;54.062;9.962;2023-09-07T15:34:08;32.30;56.30
6307;DHT22;3186;54.062;9.962;2023-09-07T15:36:34;32.40;51.20
6307;DHT22;3186;54.062;9.962;2023-09-07T15:39:00;32.40;43.10
6307;DHT22;3186;54.062;9.962;2023-09-07T15:41:26;32.70;55.00
6307;DHT22;3186;54.062;9.962;2023-09-07T15:43:53;32.70;52.00
6307;DHT22;3186;54.062;9.962;2023-09-07T15:46:19;32.50;52.70
6307;DHT22;3186;54.062;9.962;2023-09-07T15:48:45;32.50;40.00
6307;DHT22;3186;54.062;9.962;2023-09-07T15:51:12;32.20;48.80
6307;DHT22;3186;54.062;9.962;2023-09-07T15:53:38;32.20;41.70
6307;DHT22;3186;54.062;9.962;2023-09-07T15:56:04;32.20;50.50
6307;DHT22;3186;54.062;9.962;2023-09-07T15:58:30;32.20;28.20
6307;DHT22;3186;54.062;9.962;2023-09-07T16:00:57;32.30;32.50
6307;DHT22;3186;54.062;9.962;2023-09-07T16:03:23;32.10;26.40
6307;DHT22;3186;54.062;9.962;2023-09-07T16:05:48;32.00;47.50
6307;DHT22;3186;54.062;9.962;2023-09-07T16:08:14;31.90;49.90
6307;DHT22;3186;54.062;9.962;2023-09-07T16:10:39;32.00;50.20